sensor_id;sensor_type;location;lat;lon;timestamp;P1;durP1;ratioP1;P2;durP2;ratioP2
74674;SDS011;63200;48.810;12.352;2022-12-18T00:01:29;171.50;;;41.03;;
74674;SDS011;63200;48.810;12.352;2022-12-18T00:03:56;167.90;;;35.97;;
74674;SDS011;63200;48.810;12.352;2022-12-18T00:06:22;161.63;;;38.37;;
74674;SDS011;63200;48.810;12.352;2022-12-18T00:08:49;169.07;;;39.30;;
74674;SDS011;63200;48.810;12.352;2022-12-18T00:11:15;138.93;;;35.13;;
74674;SDS011;63200;48.810;12.352;2022-12-18T00:13:42;163.80;;;39.53;;
74674;SDS011;63200;48.810;12.352;2022-12-18T00:16:12;167.13;;;36.07;;
74674;SDS011;63200;48.810;12.352;2022-12-18T00:18:39;160.77;;;39.30;;
74674;SDS011;63200;48.810;12.352;2022-12-18T00:21:06;159.53;;;35.97;;
74674;SDS011;63200;48.810;12.352;2022-12-18T00:23:33;160.13;;;39.27;;
74674;SDS011;63200;48.810;12.352;2022-12-18T00:26:00;178.83;;;40.53;;
74674;SDS011;63200;48.810;12.352;2022-12-18T00:28:26;172.90;;;40.03;;
74674;SDS011;63200;48.810;12.352;2022-12-18T00:30:59;161.80;;;35.00;;
74674;SDS011;63200;48.810;12.352;2022-12-18T00:33:35;172.40;;;40.30;;
74674;SDS011;63200;48.810;12.352;2022-12-18T00:36:04;199.73;;;42.27;;
74674;SDS011;63200;48.810;12.352;2022-12-18T00:38:32;165.03;;;39.63;;
74674;SDS011;63200;48.810;12.352;2022-12-18T00:40:57;207.83;;;46.10;;
74674;SDS011;63200;48.810;12.352;2022-12-18T00:43:23;168.77;;;35.23;;
74674;SDS011;63200;48.810;12.352;2022-12-18T00:45:48;185.67;;;39.57;;
74674;SDS011;63200;48.810;12.352;2022-12-18T00:48:14;184.00;;;37.20;;
74674;SDS011;63200;48.810;12.352;2022-12-18T00:50:39;194.60;;;39.00;;
74674;SDS011;63200;48.810;12.352;2022-12-18T00:53:04;184.73;;;40.83;;
74674;SDS011;63200;48.810;12.352;2022-12-18T00:55:30;181.63;;;40.60;;
74674;SDS011;63200;48.810;12.352;2022-12-18T00:57:56;181.50;;;40.00;;
74674;SDS011;63200;48.810;12.352;2022-12-18T01:00:22;166.43;;;37.53;;
74674;SDS011;63200;48.810;12.352;2022-12-18T01:02:47;212.07;;;45.83;;
74674;SDS011;63200;48.810;12.352;2022-12-18T01:05:13;206.83;;;40.43;;
74674;SDS011;63200;48.810;12.352;2022-12-18T01:07:39;187.80;;;39.57;;
74674;SDS011;63200;48.810;12.352;2022-12-18T01:10:05;164.47;;;33.37;;
74674;SDS011;63200;48.810;12.352;2022-12-18T01:12:32;167.13;;;34.13;;
74674;SDS011;63200;48.810;12.352;2022-12-18T01:14:58;183.07;;;40.70;;
74674;SDS011;63200;48.810;12.352;2022-12-18T01:17:23;170.17;;;36.40;;
74674;SDS011;63200;48.810;12.352;2022-12-18T01:19:49;188.50;;;38.10;;
74674;SDS011;63200;48.810;12.352;2022-12-18T01:22:14;158.10;;;33.37;;
74674;SDS011;63200;48.810;12.352;2022-12-18T01:24:40;170.83;;;38.20;;
74674;SDS011;63200;48.810;12.352;2022-12-18T01:27:05;197.60;;;45.37;;
74674;SDS011;63200;48.810;12.352;2022-12-18T01:29:31;173.60;;;37.17;;
74674;SDS011;63200;48.810;12.352;2022-12-18T01:31:57;193.77;;;42.00;;
74674;SDS011;63200;48.810;12.352;2022-12-18T01:34:22;173.40;;;38.77;;
74674;SDS011;63200;48.810;12.352;2022-12-18T01:36:48;176.10;;;37.07;;
74674;SDS011;63200;48.810;12.352;2022-12-18T01:39:17;181.10;;;39.33;;
74674;SDS011;63200;48.810;12.352;2022-12-18T01:41:43;197.63;;;45.87;;
74674;SDS011;63200;48.810;12.352;2022-12-18T01:47:27;174.93;;;36.87;;
74674;SDS011;63200;48.810;12.352;2022-12-18T01:49:57;175.20;;;41.00;;
74674;SDS011;63200;48.810;12.352;2022-12-18T01:52:24;184.13;;;40.67;;
74674;SDS011;63200;48.810;12.352;2022-12-18T01:54:53;192.70;;;41.77;;
74674;SDS011;63200;48.810;12.352;2022-12-18T01:57:20;163.87;;;37.97;;
74674;SDS011;63200;48.810;12.352;2022-12-18T01:59:47;169.43;;;39.33;;
74674;SDS011;63200;48.810;12.352;2022-12-18T02:02:17;123.67;;;29.27;;
74674;SDS011;63200;48.810;12.352;2022-12-18T02:04:43;135.83;;;30.97;;
74674;SDS011;63200;48.810;12.352;2022-12-18T02:09:45;136.93;;;33.37;;
74674;SDS011;63200;48.810;12.352;2022-12-18T02:12:14;148.23;;;36.30;;
74674;SDS011;63200;48.810;12.352;2022-12-18T02:14:45;145.77;;;34.87;;
74674;SDS011;63200;48.810;12.352;2022-12-18T02:17:21;136.23;;;33.73;;
74674;SDS011;63200;48.810;12.352;2022-12-18T02:28:55;133.40;;;33.23;;
74674;SDS011;63200;48.810;12.352;2022-12-18T02:31:43;136.27;;;38.00;;
74674;SDS011;63200;48.810;12.352;2022-12-18T02:34:12;129.23;;;36.87;;
74674;SDS011;63200;48.810;12.352;2022-12-18T02:36:39;122.50;;;33.67;;
74674;SDS011;63200;48.810;12.352;2022-12-18T02:39:07;130.10;;;33.80;;
74674;SDS011;63200;48.810;12.352;2022-12-18T02:41:36;136.63;;;35.17;;
74674;SDS011;63200;48.810;12.352;2022-12-18T02:44:10;113.47;;;30.13;;
74674;SDS011;63200;48.810;12.352;2022-12-18T02:46:39;103.97;;;29.60;;
74674;SDS011;63200;48.810;12.352;2022-12-18T02:49:29;126.27;;;33.47;;
74674;SDS011;63200;48.810;12.352;2022-12-18T02:57:45;105.83;;;26.93;;
74674;SDS011;63200;48.810;12.352;2022-12-18T03:00:16;113.63;;;27.90;;
74674;SDS011;63200;48.810;12.352;2022-12-18T03:05:22;106.33;;;27.03;;
74674;SDS011;63200;48.810;12.352;2022-12-18T03:07:55;108.23;;;28.70;;
74674;SDS011;63200;48.810;12.352;2022-12-18T03:10:25;101.20;;;28.67;;
74674;SDS011;63200;48.810;12.352;2022-12-18T03:12:55;129.80;;;31.00;;
74674;SDS011;63200;48.810;12.352;2022-12-18T03:15:30;121.40;;;30.33;;
74674;SDS011;63200;48.810;12.352;2022-12-18T03:18:04;113.47;;;29.47;;
74674;SDS011;63200;48.810;12.352;2022-12-18T03:20:44;113.73;;;31.13;;
74674;SDS011;63200;48.810;12.352;2022-12-18T03:23:14;115.67;;;29.10;;
74674;SDS011;63200;48.810;12.352;2022-12-18T03:25:42;114.20;;;33.37;;
74674;SDS011;63200;48.810;12.352;2022-12-18T03:28:12;120.20;;;32.87;;
74674;SDS011;63200;48.810;12.352;2022-12-18T03:30:40;108.77;;;31.97;;
74674;SDS011;63200;48.810;12.352;2022-12-18T03:33:18;110.80;;;29.77;;
74674;SDS011;63200;48.810;12.352;2022-12-18T03:35:49;105.83;;;26.77;;
74674;SDS011;63200;48.810;12.352;2022-12-18T03:38:14;91.63;;;24.90;;
74674;SDS011;63200;48.810;12.352;2022-12-18T03:40:43;107.47;;;28.03;;
74674;SDS011;63200;48.810;12.352;2022-12-18T03:46:08;98.17;;;24.00;;
74674;SDS011;63200;48.810;12.352;2022-12-18T03:48:43;89.80;;;24.13;;
74674;SDS011;63200;48.810;12.352;2022-12-18T03:54:39;104.67;;;29.60;;
74674;SDS011;63200;48.810;12.352;2022-12-18T04:00:13;86.33;;;23.30;;
74674;SDS011;63200;48.810;12.352;2022-12-18T04:02:43;80.33;;;24.03;;
74674;SDS011;63200;48.810;12.352;2022-12-18T04:05:11;107.07;;;33.27;;
74674;SDS011;63200;48.810;12.352;2022-12-18T04:07:37;81.70;;;25.60;;
74674;SDS011;63200;48.810;12.352;2022-12-18T04:10:04;100.33;;;27.07;;
74674;SDS011;63200;48.810;12.352;2022-12-18T04:12:31;106.13;;;28.07;;
74674;SDS011;63200;48.810;12.352;2022-12-18T04:14:57;95.57;;;24.43;;
74674;SDS011;63200;48.810;12.352;2022-12-18T04:17:22;100.33;;;27.33;;
74674;SDS011;63200;48.810;12.352;2022-12-18T04:19:48;102.57;;;24.93;;
74674;SDS011;63200;48.810;12.352;2022-12-18T04:22:14;93.30;;;25.87;;
74674;SDS011;63200;48.810;12.352;2022-12-18T04:24:39;94.93;;;28.40;;
74674;SDS011;63200;48.810;12.352;2022-12-18T04:27:04;93.23;;;27.17;;
74674;SDS011;63200;48.810;12.352;2022-12-18T04:29:30;95.73;;;23.57;;
74674;SDS011;63200;48.810;12.352;2022-12-18T04:31:56;91.57;;;27.33;;
74674;SDS011;63200;48.810;12.352;2022-12-18T04:34:21;94.27;;;29.70;;
74674;SDS011;63200;48.810;12.352;2022-12-18T04:36:46;110.60;;;31.10;;
74674;SDS011;63200;48.810;12.352;2022-12-18T04:39:12;107.80;;;26.83;;
74674;SDS011;63200;48.810;12.352;2022-12-18T04:41:37;87.10;;;26.83;;
74674;SDS011;63200;48.810;12.352;2022-12-18T04:44:04;98.43;;;33.10;;
74674;SDS011;63200;48.810;12.352;2022-12-18T04:46:29;106.67;;;29.03;;
74674;SDS011;63200;48.810;12.352;2022-12-18T04:48:55;95.77;;;25.57;;
74674;SDS011;63200;48.810;12.352;2022-12-18T04:51:20;106.10;;;25.33;;
74674;SDS011;63200;48.810;12.352;2022-12-18T04:53:46;105.87;;;27.50;;
74674;SDS011;63200;48.810;12.352;2022-12-18T04:56:12;90.47;;;24.07;;
74674;SDS011;63200;48.810;12.352;2022-12-18T04:58:40;96.83;;;27.33;;
74674;SDS011;63200;48.810;12.352;2022-12-18T05:01:07;96.87;;;28.10;;
74674;SDS011;63200;48.810;12.352;2022-12-18T05:03:33;103.13;;;28.40;;
74674;SDS011;63200;48.810;12.352;2022-12-18T05:05:59;89.80;;;26.87;;
74674;SDS011;63200;48.810;12.352;2022-12-18T05:08:25;81.80;;;24.23;;
74674;SDS011;63200;48.810;12.352;2022-12-18T05:10:57;86.37;;;22.03;;
74674;SDS011;63200;48.810;12.352;2022-12-18T05:13:24;98.27;;;25.13;;
74674;SDS011;63200;48.810;12.352;2022-12-18T05:15:52;80.90;;;24.97;;
74674;SDS011;63200;48.810;12.352;2022-12-18T05:18:18;85.60;;;25.10;;
74674;SDS011;63200;48.810;12.352;2022-12-18T05:20:44;109.67;;;29.60;;
74674;SDS011;63200;48.810;12.352;2022-12-18T05:23:09;107.40;;;28.60;;
74674;SDS011;63200;48.810;12.352;2022-12-18T05:25:34;97.73;;;27.30;;
74674;SDS011;63200;48.810;12.352;2022-12-18T05:28:00;96.20;;;27.80;;
74674;SDS011;63200;48.810;12.352;2022-12-18T05:30:25;86.80;;;24.63;;
74674;SDS011;63200;48.810;12.352;2022-12-18T05:32:51;100.20;;;25.93;;
74674;SDS011;63200;48.810;12.352;2022-12-18T05:35:16;104.30;;;28.77;;
74674;SDS011;63200;48.810;12.352;2022-12-18T05:37:41;104.97;;;30.17;;
74674;SDS011;63200;48.810;12.352;2022-12-18T05:40:07;99.87;;;30.63;;
74674;SDS011;63200;48.810;12.352;2022-12-18T05:42:33;103.77;;;29.50;;
74674;SDS011;63200;48.810;12.352;2022-12-18T05:44:58;121.60;;;34.23;;
74674;SDS011;63200;48.810;12.352;2022-12-18T05:47:23;133.60;;;39.63;;
74674;SDS011;63200;48.810;12.352;2022-12-18T05:49:49;132.67;;;36.60;;
74674;SDS011;63200;48.810;12.352;2022-12-18T05:52:14;119.60;;;32.63;;
74674;SDS011;63200;48.810;12.352;2022-12-18T05:54:39;123.93;;;39.13;;
74674;SDS011;63200;48.810;12.352;2022-12-18T05:57:05;106.07;;;30.47;;
74674;SDS011;63200;48.810;12.352;2022-12-18T05:59:30;109.90;;;29.97;;
74674;SDS011;63200;48.810;12.352;2022-12-18T06:01:56;106.00;;;30.80;;
74674;SDS011;63200;48.810;12.352;2022-12-18T06:04:21;109.70;;;31.50;;
74674;SDS011;63200;48.810;12.352;2022-12-18T06:06:46;124.93;;;33.73;;
74674;SDS011;63200;48.810;12.352;2022-12-18T06:09:11;117.77;;;34.37;;
74674;SDS011;63200;48.810;12.352;2022-12-18T06:11:37;108.67;;;30.30;;
74674;SDS011;63200;48.810;12.352;2022-12-18T06:14:04;96.20;;;26.87;;
74674;SDS011;63200;48.810;12.352;2022-12-18T06:16:30;100.27;;;28.67;;
74674;SDS011;63200;48.810;12.352;2022-12-18T06:18:59;110.67;;;31.03;;
74674;SDS011;63200;48.810;12.352;2022-12-18T06:21:26;117.23;;;30.50;;
74674;SDS011;63200;48.810;12.352;2022-12-18T06:23:52;118.53;;;31.60;;
74674;SDS011;63200;48.810;12.352;2022-12-18T06:26:17;126.87;;;31.93;;
74674;SDS011;63200;48.810;12.352;2022-12-18T06:28:43;134.97;;;34.87;;
74674;SDS011;63200;48.810;12.352;2022-12-18T06:31:08;141.80;;;32.20;;
74674;SDS011;63200;48.810;12.352;2022-12-18T06:33:34;131.43;;;32.70;;
74674;SDS011;63200;48.810;12.352;2022-12-18T06:36:05;141.87;;;33.57;;
74674;SDS011;63200;48.810;12.352;2022-12-18T06:38:32;148.93;;;35.20;;
74674;SDS011;63200;48.810;12.352;2022-12-18T06:40:59;128.63;;;31.20;;
74674;SDS011;63200;48.810;12.352;2022-12-18T06:43:25;121.47;;;31.43;;
74674;SDS011;63200;48.810;12.352;2022-12-18T06:45:50;152.70;;;34.80;;
74674;SDS011;63200;48.810;12.352;2022-12-18T06:48:20;133.13;;;34.47;;
74674;SDS011;63200;48.810;12.352;2022-12-18T06:50:46;124.80;;;28.90;;
74674;SDS011;63200;48.810;12.352;2022-12-18T06:53:12;131.93;;;30.47;;
74674;SDS011;63200;48.810;12.352;2022-12-18T06:55:37;134.80;;;31.33;;
74674;SDS011;63200;48.810;12.352;2022-12-18T06:58:02;131.77;;;33.47;;
74674;SDS011;63200;48.810;12.352;2022-12-18T07:00:28;135.87;;;34.40;;
74674;SDS011;63200;48.810;12.352;2022-12-18T07:02:53;123.53;;;27.10;;
74674;SDS011;63200;48.810;12.352;2022-12-18T07:05:19;135.20;;;37.30;;
74674;SDS011;63200;48.810;12.352;2022-12-18T07:07:44;132.33;;;34.73;;
74674;SDS011;63200;48.810;12.352;2022-12-18T07:10:09;134.70;;;35.00;;
74674;SDS011;63200;48.810;12.352;2022-12-18T07:12:35;128.40;;;33.77;;
74674;SDS011;63200;48.810;12.352;2022-12-18T07:15:00;111.07;;;30.00;;
74674;SDS011;63200;48.810;12.352;2022-12-18T07:17:26;113.00;;;30.80;;
74674;SDS011;63200;48.810;12.352;2022-12-18T07:19:51;116.50;;;31.37;;
74674;SDS011;63200;48.810;12.352;2022-12-18T07:22:17;109.13;;;30.40;;
74674;SDS011;63200;48.810;12.352;2022-12-18T07:24:42;124.67;;;33.27;;
74674;SDS011;63200;48.810;12.352;2022-12-18T07:27:07;120.90;;;32.50;;
74674;SDS011;63200;48.810;12.352;2022-12-18T07:29:32;123.03;;;33.77;;
74674;SDS011;63200;48.810;12.352;2022-12-18T07:31:58;116.80;;;31.37;;
74674;SDS011;63200;48.810;12.352;2022-12-18T07:34:23;116.27;;;29.60;;
74674;SDS011;63200;48.810;12.352;2022-12-18T07:36:49;111.40;;;27.03;;
74674;SDS011;63200;48.810;12.352;2022-12-18T07:39:14;111.33;;;31.43;;
74674;SDS011;63200;48.810;12.352;2022-12-18T07:41:39;103.67;;;30.20;;
74674;SDS011;63200;48.810;12.352;2022-12-18T07:44:10;96.97;;;27.40;;
74674;SDS011;63200;48.810;12.352;2022-12-18T07:46:36;111.67;;;31.53;;
74674;SDS011;63200;48.810;12.352;2022-12-18T07:49:01;105.97;;;31.40;;
74674;SDS011;63200;48.810;12.352;2022-12-18T07:51:27;100.30;;;31.37;;
74674;SDS011;63200;48.810;12.352;2022-12-18T07:53:52;102.97;;;30.03;;
74674;SDS011;63200;48.810;12.352;2022-12-18T07:56:18;87.60;;;24.50;;
74674;SDS011;63200;48.810;12.352;2022-12-18T07:58:43;95.53;;;30.33;;
74674;SDS011;63200;48.810;12.352;2022-12-18T08:01:10;105.60;;;30.53;;
74674;SDS011;63200;48.810;12.352;2022-12-18T08:03:36;85.40;;;26.67;;
74674;SDS011;63200;48.810;12.352;2022-12-18T08:06:04;100.93;;;32.93;;
74674;SDS011;63200;48.810;12.352;2022-12-18T08:08:31;109.47;;;33.17;;
74674;SDS011;63200;48.810;12.352;2022-12-18T08:10:57;83.00;;;22.23;;
74674;SDS011;63200;48.810;12.352;2022-12-18T08:13:23;104.03;;;31.83;;
74674;SDS011;63200;48.810;12.352;2022-12-18T08:15:59;89.53;;;27.10;;
74674;SDS011;63200;48.810;12.352;2022-12-18T08:18:25;113.37;;;30.20;;
74674;SDS011;63200;48.810;12.352;2022-12-18T08:20:51;86.27;;;25.83;;
74674;SDS011;63200;48.810;12.352;2022-12-18T08:23:17;116.63;;;32.93;;
74674;SDS011;63200;48.810;12.352;2022-12-18T08:25:42;102.07;;;29.73;;
74674;SDS011;63200;48.810;12.352;2022-12-18T08:28:07;111.63;;;31.70;;
74674;SDS011;63200;48.810;12.352;2022-12-18T08:30:33;105.80;;;29.83;;
74674;SDS011;63200;48.810;12.352;2022-12-18T08:32:58;113.27;;;30.63;;
74674;SDS011;63200;48.810;12.352;2022-12-18T08:35:23;103.90;;;32.97;;
74674;SDS011;63200;48.810;12.352;2022-12-18T08:37:49;111.27;;;28.53;;
74674;SDS011;63200;48.810;12.352;2022-12-18T08:40:15;87.60;;;27.67;;
74674;SDS011;63200;48.810;12.352;2022-12-18T08:42:40;96.67;;;28.43;;
74674;SDS011;63200;48.810;12.352;2022-12-18T08:45:26;99.60;;;29.10;;
74674;SDS011;63200;48.810;12.352;2022-12-18T08:47:51;98.07;;;29.13;;
74674;SDS011;63200;48.810;12.352;2022-12-18T08:50:16;87.73;;;27.00;;
74674;SDS011;63200;48.810;12.352;2022-12-18T08:52:42;89.93;;;28.40;;
74674;SDS011;63200;48.810;12.352;2022-12-18T08:55:07;93.10;;;26.70;;
74674;SDS011;63200;48.810;12.352;2022-12-18T08:57:34;79.77;;;24.13;;
74674;SDS011;63200;48.810;12.352;2022-12-18T08:59:59;96.83;;;35.30;;
74674;SDS011;63200;48.810;12.352;2022-12-18T09:02:25;84.03;;;25.27;;
74674;SDS011;63200;48.810;12.352;2022-12-18T09:04:50;91.50;;;31.57;;
74674;SDS011;63200;48.810;12.352;2022-12-18T09:07:15;81.70;;;26.17;;
74674;SDS011;63200;48.810;12.352;2022-12-18T09:09:41;85.77;;;27.10;;
74674;SDS011;63200;48.810;12.352;2022-12-18T09:12:06;78.70;;;27.03;;
74674;SDS011;63200;48.810;12.352;2022-12-18T09:14:32;79.70;;;26.03;;
74674;SDS011;63200;48.810;12.352;2022-12-18T09:16:57;80.67;;;24.87;;
74674;SDS011;63200;48.810;12.352;2022-12-18T09:19:22;80.90;;;24.60;;
74674;SDS011;63200;48.810;12.352;2022-12-18T09:21:48;82.90;;;24.23;;
74674;SDS011;63200;48.810;12.352;2022-12-18T09:24:16;78.07;;;27.90;;
74674;SDS011;63200;48.810;12.352;2022-12-18T09:26:41;77.13;;;26.70;;
74674;SDS011;63200;48.810;12.352;2022-12-18T09:29:07;87.67;;;29.00;;
74674;SDS011;63200;48.810;12.352;2022-12-18T09:31:33;72.43;;;23.27;;
74674;SDS011;63200;48.810;12.352;2022-12-18T09:33:59;82.90;;;25.10;;
74674;SDS011;63200;48.810;12.352;2022-12-18T09:36:24;73.63;;;25.57;;
74674;SDS011;63200;48.810;12.352;2022-12-18T09:38:50;76.03;;;23.63;;
74674;SDS011;63200;48.810;12.352;2022-12-18T09:43:59;66.90;;;25.33;;
74674;SDS011;63200;48.810;12.352;2022-12-18T09:46:28;64.00;;;24.80;;
74674;SDS011;63200;48.810;12.352;2022-12-18T09:48:59;70.77;;;26.00;;
74674;SDS011;63200;48.810;12.352;2022-12-18T09:57:17;66.77;;;24.03;;
74674;SDS011;63200;48.810;12.352;2022-12-18T09:59:46;68.70;;;22.30;;
74674;SDS011;63200;48.810;12.352;2022-12-18T10:02:19;62.63;;;22.70;;
74674;SDS011;63200;48.810;12.352;2022-12-18T10:04:50;55.73;;;23.73;;
74674;SDS011;63200;48.810;12.352;2022-12-18T10:07:36;65.40;;;23.53;;
74674;SDS011;63200;48.810;12.352;2022-12-18T10:15:43;65.83;;;26.30;;
74674;SDS011;63200;48.810;12.352;2022-12-18T10:18:54;68.00;;;24.03;;
74674;SDS011;63200;48.810;12.352;2022-12-18T10:21:25;77.63;;;27.77;;
74674;SDS011;63200;48.810;12.352;2022-12-18T10:24:01;80.30;;;26.33;;
74674;SDS011;63200;48.810;12.352;2022-12-18T10:26:48;90.50;;;26.37;;
74674;SDS011;63200;48.810;12.352;2022-12-18T10:29:14;94.03;;;29.13;;
74674;SDS011;63200;48.810;12.352;2022-12-18T10:31:41;77.47;;;24.43;;
74674;SDS011;63200;48.810;12.352;2022-12-18T10:34:10;73.97;;;21.53;;
74674;SDS011;63200;48.810;12.352;2022-12-18T10:36:39;85.63;;;28.43;;
74674;SDS011;63200;48.810;12.352;2022-12-18T10:42:20;78.77;;;26.27;;
74674;SDS011;63200;48.810;12.352;2022-12-18T10:44:45;73.50;;;23.07;;
74674;SDS011;63200;48.810;12.352;2022-12-18T10:47:12;75.93;;;24.03;;
74674;SDS011;63200;48.810;12.352;2022-12-18T10:49:47;81.80;;;24.17;;
74674;SDS011;63200;48.810;12.352;2022-12-18T10:55:12;73.37;;;22.43;;
74674;SDS011;63200;48.810;12.352;2022-12-18T10:57:41;70.23;;;22.27;;
74674;SDS011;63200;48.810;12.352;2022-12-18T11:02:52;75.03;;;29.33;;
74674;SDS011;63200;48.810;12.352;2022-12-18T11:07:55;82.27;;;27.40;;
74674;SDS011;63200;48.810;12.352;2022-12-18T11:10:22;74.73;;;26.03;;
74674;SDS011;63200;48.810;12.352;2022-12-18T11:12:53;74.00;;;27.90;;
74674;SDS011;63200;48.810;12.352;2022-12-18T11:15:20;72.27;;;27.27;;
74674;SDS011;63200;48.810;12.352;2022-12-18T11:17:49;72.80;;;25.80;;
74674;SDS011;63200;48.810;12.352;2022-12-18T11:22:45;62.70;;;23.37;;
74674;SDS011;63200;48.810;12.352;2022-12-18T11:25:24;76.13;;;27.50;;
74674;SDS011;63200;48.810;12.352;2022-12-18T11:27:56;61.93;;;20.57;;
74674;SDS011;63200;48.810;12.352;2022-12-18T11:32:59;71.00;;;25.07;;
74674;SDS011;63200;48.810;12.352;2022-12-18T11:35:46;50.60;;;19.80;;
74674;SDS011;63200;48.810;12.352;2022-12-18T11:43:53;69.47;;;23.17;;
74674;SDS011;63200;48.810;12.352;2022-12-18T11:46:31;68.87;;;24.73;;
74674;SDS011;63200;48.810;12.352;2022-12-18T11:52:04;66.13;;;21.83;;
74674;SDS011;63200;48.810;12.352;2022-12-18T11:54:40;70.20;;;23.33;;
74674;SDS011;63200;48.810;12.352;2022-12-18T12:13:12;69.60;;;22.77;;
74674;SDS011;63200;48.810;12.352;2022-12-18T12:15:54;81.80;;;27.43;;
74674;SDS011;63200;48.810;12.352;2022-12-18T12:21:13;67.70;;;20.47;;
74674;SDS011;63200;48.810;12.352;2022-12-18T12:23:57;63.93;;;19.23;;
74674;SDS011;63200;48.810;12.352;2022-12-18T12:26:27;75.47;;;21.07;;
74674;SDS011;63200;48.810;12.352;2022-12-18T12:29:06;64.43;;;20.17;;
74674;SDS011;63200;48.810;12.352;2022-12-18T12:34:26;86.60;;;31.93;;
74674;SDS011;63200;48.810;12.352;2022-12-18T12:39:47;71.47;;;22.90;;
74674;SDS011;63200;48.810;12.352;2022-12-18T12:42:15;71.50;;;21.67;;
74674;SDS011;63200;48.810;12.352;2022-12-18T12:45:05;66.77;;;21.03;;
74674;SDS011;63200;48.810;12.352;2022-12-18T12:47:36;84.50;;;25.07;;
74674;SDS011;63200;48.810;12.352;2022-12-18T12:50:06;76.60;;;23.10;;
74674;SDS011;63200;48.810;12.352;2022-12-18T12:55:07;80.37;;;21.17;;
74674;SDS011;63200;48.810;12.352;2022-12-18T12:57:41;70.87;;;21.83;;
74674;SDS011;63200;48.810;12.352;2022-12-18T13:00:16;56.97;;;19.10;;
74674;SDS011;63200;48.810;12.352;2022-12-18T13:08:52;80.87;;;26.27;;
74674;SDS011;63200;48.810;12.352;2022-12-18T13:14:35;69.07;;;20.10;;
74674;SDS011;63200;48.810;12.352;2022-12-18T13:19:49;71.57;;;21.17;;
74674;SDS011;63200;48.810;12.352;2022-12-18T13:22:20;66.07;;;19.40;;
74674;SDS011;63200;48.810;12.352;2022-12-18T13:24:48;66.43;;;21.77;;
74674;SDS011;63200;48.810;12.352;2022-12-18T13:30:56;75.53;;;21.90;;
74674;SDS011;63200;48.810;12.352;2022-12-18T13:41:01;66.80;;;19.40;;
74674;SDS011;63200;48.810;12.352;2022-12-18T13:43:31;71.87;;;21.67;;
74674;SDS011;63200;48.810;12.352;2022-12-18T13:46:01;62.90;;;19.80;;
74674;SDS011;63200;48.810;12.352;2022-12-18T13:48:41;68.70;;;20.87;;
74674;SDS011;63200;48.810;12.352;2022-12-18T13:51:16;65.47;;;20.07;;
74674;SDS011;63200;48.810;12.352;2022-12-18T13:56:21;70.13;;;19.23;;
74674;SDS011;63200;48.810;12.352;2022-12-18T14:01:57;72.77;;;22.73;;
74674;SDS011;63200;48.810;12.352;2022-12-18T14:06:53;54.37;;;18.73;;
74674;SDS011;63200;48.810;12.352;2022-12-18T14:09:26;75.97;;;20.00;;
74674;SDS011;63200;48.810;12.352;2022-12-18T14:11:55;64.13;;;20.93;;
74674;SDS011;63200;48.810;12.352;2022-12-18T14:14:42;81.33;;;21.63;;
74674;SDS011;63200;48.810;12.352;2022-12-18T14:17:12;83.80;;;26.30;;
74674;SDS011;63200;48.810;12.352;2022-12-18T14:19:42;81.77;;;24.13;;
74674;SDS011;63200;48.810;12.352;2022-12-18T14:22:17;79.77;;;25.27;;
74674;SDS011;63200;48.810;12.352;2022-12-18T14:24:44;79.93;;;24.93;;
74674;SDS011;63200;48.810;12.352;2022-12-18T14:27:23;75.67;;;23.77;;
74674;SDS011;63200;48.810;12.352;2022-12-18T14:29:50;77.57;;;22.70;;
74674;SDS011;63200;48.810;12.352;2022-12-18T14:32:17;77.60;;;24.73;;
74674;SDS011;63200;48.810;12.352;2022-12-18T14:34:45;80.50;;;27.67;;
74674;SDS011;63200;48.810;12.352;2022-12-18T14:37:14;85.73;;;27.67;;
74674;SDS011;63200;48.810;12.352;2022-12-18T14:39:51;91.53;;;27.63;;
74674;SDS011;63200;48.810;12.352;2022-12-18T14:42:17;95.03;;;28.70;;
74674;SDS011;63200;48.810;12.352;2022-12-18T14:44:43;86.80;;;27.03;;
74674;SDS011;63200;48.810;12.352;2022-12-18T14:47:13;71.27;;;22.93;;
74674;SDS011;63200;48.810;12.352;2022-12-18T14:49:40;66.03;;;21.13;;
74674;SDS011;63200;48.810;12.352;2022-12-18T14:55:05;55.03;;;18.30;;
74674;SDS011;63200;48.810;12.352;2022-12-18T14:57:35;68.70;;;21.77;;
74674;SDS011;63200;48.810;12.352;2022-12-18T15:00:03;94.73;;;33.03;;
74674;SDS011;63200;48.810;12.352;2022-12-18T15:02:39;91.23;;;27.93;;
74674;SDS011;63200;48.810;12.352;2022-12-18T15:05:14;75.97;;;26.00;;
74674;SDS011;63200;48.810;12.352;2022-12-18T15:07:43;83.83;;;25.37;;
74674;SDS011;63200;48.810;12.352;2022-12-18T15:10:15;76.53;;;24.07;;
74674;SDS011;63200;48.810;12.352;2022-12-18T15:18:00;75.03;;;21.87;;
74674;SDS011;63200;48.810;12.352;2022-12-18T15:20:26;65.37;;;18.97;;
74674;SDS011;63200;48.810;12.352;2022-12-18T15:22:52;62.63;;;19.93;;
74674;SDS011;63200;48.810;12.352;2022-12-18T15:27:52;56.20;;;15.80;;
74674;SDS011;63200;48.810;12.352;2022-12-18T15:30:18;69.93;;;21.67;;
74674;SDS011;63200;48.810;12.352;2022-12-18T15:32:46;67.43;;;21.80;;
74674;SDS011;63200;48.810;12.352;2022-12-18T15:37:46;70.27;;;20.07;;
74674;SDS011;63200;48.810;12.352;2022-12-18T15:40:13;76.13;;;24.17;;
74674;SDS011;63200;48.810;12.352;2022-12-18T15:42:40;79.73;;;25.90;;
74674;SDS011;63200;48.810;12.352;2022-12-18T15:45:24;61.73;;;22.37;;
74674;SDS011;63200;48.810;12.352;2022-12-18T15:47:50;67.30;;;22.87;;
74674;SDS011;63200;48.810;12.352;2022-12-18T15:50:15;75.40;;;24.77;;
74674;SDS011;63200;48.810;12.352;2022-12-18T15:52:41;79.30;;;24.80;;
74674;SDS011;63200;48.810;12.352;2022-12-18T15:55:12;85.63;;;27.97;;
74674;SDS011;63200;48.810;12.352;2022-12-18T15:57:57;89.00;;;27.50;;
74674;SDS011;63200;48.810;12.352;2022-12-18T16:00:23;68.37;;;21.20;;
74674;SDS011;63200;48.810;12.352;2022-12-18T16:02:48;58.47;;;18.60;;
74674;SDS011;63200;48.810;12.352;2022-12-18T16:05:14;68.13;;;20.00;;
74674;SDS011;63200;48.810;12.352;2022-12-18T16:07:41;65.73;;;19.70;;
74674;SDS011;63200;48.810;12.352;2022-12-18T16:10:07;56.70;;;17.80;;
74674;SDS011;63200;48.810;12.352;2022-12-18T16:12:33;64.03;;;17.90;;
74674;SDS011;63200;48.810;12.352;2022-12-18T16:14:58;54.77;;;17.10;;
74674;SDS011;63200;48.810;12.352;2022-12-18T16:17:23;51.03;;;17.17;;
74674;SDS011;63200;48.810;12.352;2022-12-18T16:19:49;57.67;;;16.80;;
74674;SDS011;63200;48.810;12.352;2022-12-18T16:22:18;67.47;;;19.07;;
74674;SDS011;63200;48.810;12.352;2022-12-18T16:24:46;66.67;;;20.77;;
74674;SDS011;63200;48.810;12.352;2022-12-18T16:27:11;66.63;;;21.43;;
74674;SDS011;63200;48.810;12.352;2022-12-18T16:29:37;67.07;;;19.83;;
74674;SDS011;63200;48.810;12.352;2022-12-18T16:32:02;78.33;;;21.07;;
74674;SDS011;63200;48.810;12.352;2022-12-18T16:34:33;67.20;;;20.43;;